Terminal Aerodrome Forecast
Issued by NWS

Home | Current Version | Previous Version | Text Only | Print | Product List | Glossary On
Versions: 1 2 3 4 5 6 7 8 9 10 11 12 13 14 15
606
FTUS44 KOHX 081358 AAA
TAFCKV
TAF AMD
KCKV 081358Z 0814/0912 28008G15KT P6SM BKN070
     FM081600 28011G20KT 6SM -RA BR OVC025
     FM082000 29010G19KT 5SM -SN OVC015
     FM090100 28010KT 5SM -SN OVC015
     FM090600 30010KT P6SM OVC015=

USA.gov is the U.S. government's official web portal to all federal, state and local government web resources and services.